sensor_id;sensor_type;location;lat;lon;timestamp;P1;durP1;ratioP1;P2;durP2;ratioP2
72649;SDS011;61467;50.674;4.618;2023-04-03T00:01:18;12.23;;;5.60;;
72649;SDS011;61467;50.674;4.618;2023-04-03T00:03:46;11.73;;;5.25;;
72649;SDS011;61467;50.674;4.618;2023-04-03T00:06:15;10.68;;;5.13;;
72649;SDS011;61467;50.674;4.618;2023-04-03T00:08:42;9.85;;;4.85;;
72649;SDS011;61467;50.674;4.618;2023-04-03T00:11:09;11.07;;;5.70;;
72649;SDS011;61467;50.674;4.618;2023-04-03T00:13:36;11.38;;;5.35;;
72649;SDS011;61467;50.674;4.618;2023-04-03T00:16:04;10.55;;;5.65;;
72649;SDS011;61467;50.674;4.618;2023-04-03T00:18:32;9.70;;;5.22;;
72649;SDS011;61467;50.674;4.618;2023-04-03T00:20:58;9.02;;;4.93;;
72649;SDS011;61467;50.674;4.618;2023-04-03T00:23:27;11.00;;;5.20;;
72649;SDS011;61467;50.674;4.618;2023-04-03T00:25:54;9.55;;;5.15;;
72649;SDS011;61467;50.674;4.618;2023-04-03T00:28:21;9.60;;;5.57;;
72649;SDS011;61467;50.674;4.618;2023-04-03T00:30:48;11.13;;;4.82;;
72649;SDS011;61467;50.674;4.618;2023-04-03T00:33:16;11.20;;;4.93;;
72649;SDS011;61467;50.674;4.618;2023-04-03T00:35:44;9.13;;;5.10;;
72649;SDS011;61467;50.674;4.618;2023-04-03T00:38:11;8.60;;;4.90;;
72649;SDS011;61467;50.674;4.618;2023-04-03T00:40:41;10.48;;;5.03;;
72649;SDS011;61467;50.674;4.618;2023-04-03T00:43:10;9.35;;;4.93;;
72649;SDS011;61467;50.674;4.618;2023-04-03T00:45:39;9.88;;;5.20;;
72649;SDS011;61467;50.674;4.618;2023-04-03T00:48:10;10.20;;;4.93;;
72649;SDS011;61467;50.674;4.618;2023-04-03T00:50:40;8.63;;;4.53;;
72649;SDS011;61467;50.674;4.618;2023-04-03T00:53:09;10.80;;;5.40;;
72649;SDS011;61467;50.674;4.618;2023-04-03T00:55:40;8.45;;;4.93;;
72649;SDS011;61467;50.674;4.618;2023-04-03T00:58:10;9.48;;;4.82;;
72649;SDS011;61467;50.674;4.618;2023-04-03T01:00:38;9.07;;;4.63;;
72649;SDS011;61467;50.674;4.618;2023-04-03T01:03:08;9.75;;;4.93;;
72649;SDS011;61467;50.674;4.618;2023-04-03T01:05:35;10.75;;;4.93;;
72649;SDS011;61467;50.674;4.618;2023-04-03T01:08:02;9.93;;;5.18;;
72649;SDS011;61467;50.674;4.618;2023-04-03T01:10:29;10.68;;;5.15;;
72649;SDS011;61467;50.674;4.618;2023-04-03T01:12:57;10.10;;;4.93;;
72649;SDS011;61467;50.674;4.618;2023-04-03T01:15:26;8.93;;;4.72;;
72649;SDS011;61467;50.674;4.618;2023-04-03T01:17:55;10.32;;;5.22;;
72649;SDS011;61467;50.674;4.618;2023-04-03T01:23:46;11.00;;;5.32;;
72649;SDS011;61467;50.674;4.618;2023-04-03T01:26:22;10.70;;;4.70;;
72649;SDS011;61467;50.674;4.618;2023-04-03T01:28:52;10.48;;;5.22;;
72649;SDS011;61467;50.674;4.618;2023-04-03T01:31:22;9.43;;;5.15;;
72649;SDS011;61467;50.674;4.618;2023-04-03T01:33:53;8.52;;;4.40;;
72649;SDS011;61467;50.674;4.618;2023-04-03T01:36:22;9.55;;;4.88;;
72649;SDS011;61467;50.674;4.618;2023-04-03T01:38:50;11.17;;;4.63;;
72649;SDS011;61467;50.674;4.618;2023-04-03T01:41:18;9.40;;;4.90;;
72649;SDS011;61467;50.674;4.618;2023-04-03T01:43:45;10.00;;;5.38;;
72649;SDS011;61467;50.674;4.618;2023-04-03T01:46:12;9.52;;;5.03;;
72649;SDS011;61467;50.674;4.618;2023-04-03T01:48:39;9.75;;;5.30;;
72649;SDS011;61467;50.674;4.618;2023-04-03T01:51:08;8.40;;;4.67;;
72649;SDS011;61467;50.674;4.618;2023-04-03T01:53:35;8.77;;;4.65;;
72649;SDS011;61467;50.674;4.618;2023-04-03T01:56:02;8.93;;;4.90;;
72649;SDS011;61467;50.674;4.618;2023-04-03T01:58:29;9.80;;;5.13;;
72649;SDS011;61467;50.674;4.618;2023-04-03T02:00:56;10.77;;;5.45;;
72649;SDS011;61467;50.674;4.618;2023-04-03T02:03:23;8.53;;;4.33;;
72649;SDS011;61467;50.674;4.618;2023-04-03T02:05:50;8.55;;;4.78;;
72649;SDS011;61467;50.674;4.618;2023-04-03T02:08:18;10.93;;;5.10;;
72649;SDS011;61467;50.674;4.618;2023-04-03T02:10:47;9.75;;;5.35;;
72649;SDS011;61467;50.674;4.618;2023-04-03T02:13:14;9.95;;;5.45;;
72649;SDS011;61467;50.674;4.618;2023-04-03T02:15:41;10.47;;;5.37;;
72649;SDS011;61467;50.674;4.618;2023-04-03T02:18:08;10.45;;;4.97;;
72649;SDS011;61467;50.674;4.618;2023-04-03T02:20:35;9.30;;;5.10;;
72649;SDS011;61467;50.674;4.618;2023-04-03T02:23:02;13.15;;;5.35;;
72649;SDS011;61467;50.674;4.618;2023-04-03T02:25:31;9.55;;;5.30;;
72649;SDS011;61467;50.674;4.618;2023-04-03T02:27:58;9.60;;;5.13;;
72649;SDS011;61467;50.674;4.618;2023-04-03T02:30:25;9.38;;;5.28;;
72649;SDS011;61467;50.674;4.618;2023-04-03T02:32:52;10.77;;;5.72;;
72649;SDS011;61467;50.674;4.618;2023-04-03T02:35:19;9.68;;;5.10;;
72649;SDS011;61467;50.674;4.618;2023-04-03T02:37:46;9.50;;;5.20;;
72649;SDS011;61467;50.674;4.618;2023-04-03T02:40:13;14.07;;;5.50;;
72649;SDS011;61467;50.674;4.618;2023-04-03T02:42:41;11.32;;;4.93;;
72649;SDS011;61467;50.674;4.618;2023-04-03T02:45:08;9.93;;;5.60;;
72649;SDS011;61467;50.674;4.618;2023-04-03T02:47:35;10.57;;;5.40;;
72649;SDS011;61467;50.674;4.618;2023-04-03T02:50:02;12.35;;;5.93;;
72649;SDS011;61467;50.674;4.618;2023-04-03T02:52:30;11.60;;;4.73;;
72649;SDS011;61467;50.674;4.618;2023-04-03T02:54:56;10.13;;;5.03;;
72649;SDS011;61467;50.674;4.618;2023-04-03T02:57:23;8.55;;;4.93;;
72649;SDS011;61467;50.674;4.618;2023-04-03T02:59:52;9.25;;;5.22;;
72649;SDS011;61467;50.674;4.618;2023-04-03T03:02:18;8.63;;;4.88;;
72649;SDS011;61467;50.674;4.618;2023-04-03T03:04:46;10.17;;;5.40;;
72649;SDS011;61467;50.674;4.618;2023-04-03T03:07:12;9.68;;;5.68;;
72649;SDS011;61467;50.674;4.618;2023-04-03T03:09:39;9.85;;;5.28;;
72649;SDS011;61467;50.674;4.618;2023-04-03T03:12:06;10.77;;;5.70;;
72649;SDS011;61467;50.674;4.618;2023-04-03T03:14:33;10.95;;;6.05;;
72649;SDS011;61467;50.674;4.618;2023-04-03T03:17:01;11.13;;;5.37;;
72649;SDS011;61467;50.674;4.618;2023-04-03T03:19:28;9.38;;;5.05;;
72649;SDS011;61467;50.674;4.618;2023-04-03T03:21:55;9.90;;;5.15;;
72649;SDS011;61467;50.674;4.618;2023-04-03T03:24:22;10.40;;;5.35;;
72649;SDS011;61467;50.674;4.618;2023-04-03T03:26:48;10.82;;;5.30;;
72649;SDS011;61467;50.674;4.618;2023-04-03T03:29:15;10.43;;;5.30;;
72649;SDS011;61467;50.674;4.618;2023-04-03T03:31:42;9.02;;;4.97;;
72649;SDS011;61467;50.674;4.618;2023-04-03T03:34:11;11.38;;;5.18;;
72649;SDS011;61467;50.674;4.618;2023-04-03T03:36:38;9.40;;;4.72;;
72649;SDS011;61467;50.674;4.618;2023-04-03T03:39:04;9.27;;;5.47;;
72649;SDS011;61467;50.674;4.618;2023-04-03T03:41:32;10.17;;;5.13;;
72649;SDS011;61467;50.674;4.618;2023-04-03T03:43:58;10.23;;;5.40;;
72649;SDS011;61467;50.674;4.618;2023-04-03T03:46:25;9.77;;;5.28;;
72649;SDS011;61467;50.674;4.618;2023-04-03T03:48:52;10.45;;;5.32;;
72649;SDS011;61467;50.674;4.618;2023-04-03T03:51:20;10.60;;;5.55;;
72649;SDS011;61467;50.674;4.618;2023-04-03T03:53:47;10.20;;;5.23;;
72649;SDS011;61467;50.674;4.618;2023-04-03T03:56:14;14.50;;;5.55;;
72649;SDS011;61467;50.674;4.618;2023-04-03T03:58:41;9.27;;;5.35;;
72649;SDS011;61467;50.674;4.618;2023-04-03T04:01:08;13.00;;;4.80;;
72649;SDS011;61467;50.674;4.618;2023-04-03T04:03:35;10.88;;;5.05;;
72649;SDS011;61467;50.674;4.618;2023-04-03T04:06:02;9.87;;;5.30;;
72649;SDS011;61467;50.674;4.618;2023-04-03T04:08:30;11.50;;;5.18;;
72649;SDS011;61467;50.674;4.618;2023-04-03T04:10:57;12.82;;;6.10;;
72649;SDS011;61467;50.674;4.618;2023-04-03T04:13:24;13.63;;;5.75;;
72649;SDS011;61467;50.674;4.618;2023-04-03T04:15:51;9.10;;;5.53;;
72649;SDS011;61467;50.674;4.618;2023-04-03T04:18:17;9.40;;;5.17;;
72649;SDS011;61467;50.674;4.618;2023-04-03T04:20:45;10.45;;;5.40;;
72649;SDS011;61467;50.674;4.618;2023-04-03T04:23:12;9.43;;;5.10;;
72649;SDS011;61467;50.674;4.618;2023-04-03T04:25:40;10.55;;;5.72;;
72649;SDS011;61467;50.674;4.618;2023-04-03T04:28:07;10.38;;;6.18;;
72649;SDS011;61467;50.674;4.618;2023-04-03T04:30:33;11.67;;;5.83;;
72649;SDS011;61467;50.674;4.618;2023-04-03T04:33:00;11.63;;;6.05;;
72649;SDS011;61467;50.674;4.618;2023-04-03T04:35:27;12.98;;;5.30;;
72649;SDS011;61467;50.674;4.618;2023-04-03T04:37:54;10.55;;;5.07;;
72649;SDS011;61467;50.674;4.618;2023-04-03T04:40:21;11.05;;;5.50;;
72649;SDS011;61467;50.674;4.618;2023-04-03T04:42:49;9.27;;;5.00;;
72649;SDS011;61467;50.674;4.618;2023-04-03T04:45:16;9.90;;;5.55;;
72649;SDS011;61467;50.674;4.618;2023-04-03T04:47:43;9.95;;;5.95;;
72649;SDS011;61467;50.674;4.618;2023-04-03T04:50:10;10.50;;;5.72;;
72649;SDS011;61467;50.674;4.618;2023-04-03T04:52:38;11.95;;;5.57;;
72649;SDS011;61467;50.674;4.618;2023-04-03T04:55:05;12.23;;;5.57;;
72649;SDS011;61467;50.674;4.618;2023-04-03T04:57:32;11.57;;;6.00;;
72649;SDS011;61467;50.674;4.618;2023-04-03T05:00:01;12.80;;;6.72;;
72649;SDS011;61467;50.674;4.618;2023-04-03T05:02:29;13.32;;;6.30;;
72649;SDS011;61467;50.674;4.618;2023-04-03T05:04:56;11.73;;;5.85;;
72649;SDS011;61467;50.674;4.618;2023-04-03T05:07:22;12.13;;;6.10;;
72649;SDS011;61467;50.674;4.618;2023-04-03T05:09:49;10.07;;;5.45;;
72649;SDS011;61467;50.674;4.618;2023-04-03T05:12:16;12.95;;;6.57;;
72649;SDS011;61467;50.674;4.618;2023-04-03T05:14:43;10.38;;;6.30;;
72649;SDS011;61467;50.674;4.618;2023-04-03T05:17:11;12.02;;;6.53;;
72649;SDS011;61467;50.674;4.618;2023-04-03T05:19:38;12.23;;;6.30;;
72649;SDS011;61467;50.674;4.618;2023-04-03T05:22:05;10.98;;;6.32;;
72649;SDS011;61467;50.674;4.618;2023-04-03T05:24:32;11.65;;;6.55;;
72649;SDS011;61467;50.674;4.618;2023-04-03T05:26:59;11.05;;;6.22;;
72649;SDS011;61467;50.674;4.618;2023-04-03T05:29:26;11.38;;;6.57;;
72649;SDS011;61467;50.674;4.618;2023-04-03T05:31:52;11.20;;;6.40;;
72649;SDS011;61467;50.674;4.618;2023-04-03T05:34:21;9.73;;;6.25;;
72649;SDS011;61467;50.674;4.618;2023-04-03T05:36:48;10.93;;;6.57;;
72649;SDS011;61467;50.674;4.618;2023-04-03T05:39:15;12.52;;;7.05;;
72649;SDS011;61467;50.674;4.618;2023-04-03T05:41:42;11.00;;;6.50;;
72649;SDS011;61467;50.674;4.618;2023-04-03T05:44:10;12.20;;;6.57;;
72649;SDS011;61467;50.674;4.618;2023-04-03T05:46:37;12.50;;;6.50;;
72649;SDS011;61467;50.674;4.618;2023-04-03T05:49:07;13.35;;;7.05;;
72649;SDS011;61467;50.674;4.618;2023-04-03T05:51:35;11.52;;;6.60;;
72649;SDS011;61467;50.674;4.618;2023-04-03T05:54:06;12.40;;;6.55;;
72649;SDS011;61467;50.674;4.618;2023-04-03T05:56:36;13.57;;;6.73;;
72649;SDS011;61467;50.674;4.618;2023-04-03T05:59:02;12.63;;;7.68;;
72649;SDS011;61467;50.674;4.618;2023-04-03T06:01:29;16.15;;;7.65;;
72649;SDS011;61467;50.674;4.618;2023-04-03T06:03:56;12.68;;;6.88;;
72649;SDS011;61467;50.674;4.618;2023-04-03T06:06:24;16.23;;;8.20;;
72649;SDS011;61467;50.674;4.618;2023-04-03T06:08:52;12.03;;;6.97;;
72649;SDS011;61467;50.674;4.618;2023-04-03T06:11:19;13.82;;;7.47;;
72649;SDS011;61467;50.674;4.618;2023-04-03T06:13:46;12.80;;;7.53;;
72649;SDS011;61467;50.674;4.618;2023-04-03T06:16:13;11.80;;;7.13;;
72649;SDS011;61467;50.674;4.618;2023-04-03T06:18:42;13.07;;;7.18;;
72649;SDS011;61467;50.674;4.618;2023-04-03T06:21:08;11.40;;;7.03;;
72649;SDS011;61467;50.674;4.618;2023-04-03T06:23:35;11.57;;;6.68;;
72649;SDS011;61467;50.674;4.618;2023-04-03T06:26:04;13.70;;;7.07;;
72649;SDS011;61467;50.674;4.618;2023-04-03T06:28:30;17.17;;;7.20;;
72649;SDS011;61467;50.674;4.618;2023-04-03T06:30:57;13.27;;;7.70;;
72649;SDS011;61467;50.674;4.618;2023-04-03T06:33:24;12.97;;;7.00;;
72649;SDS011;61467;50.674;4.618;2023-04-03T06:35:55;11.02;;;6.90;;
72649;SDS011;61467;50.674;4.618;2023-04-03T06:38:23;11.50;;;7.43;;
72649;SDS011;61467;50.674;4.618;2023-04-03T06:40:50;11.05;;;6.97;;
72649;SDS011;61467;50.674;4.618;2023-04-03T06:43:19;11.38;;;7.38;;
72649;SDS011;61467;50.674;4.618;2023-04-03T06:45:46;13.73;;;7.57;;
72649;SDS011;61467;50.674;4.618;2023-04-03T06:48:13;13.85;;;7.95;;
72649;SDS011;61467;50.674;4.618;2023-04-03T06:50:41;13.18;;;7.50;;
72649;SDS011;61467;50.674;4.618;2023-04-03T06:53:08;14.00;;;7.78;;
72649;SDS011;61467;50.674;4.618;2023-04-03T06:55:37;13.45;;;8.10;;
72649;SDS011;61467;50.674;4.618;2023-04-03T06:58:04;13.20;;;7.37;;
72649;SDS011;61467;50.674;4.618;2023-04-03T07:00:32;14.73;;;7.75;;
72649;SDS011;61467;50.674;4.618;2023-04-03T07:02:59;13.20;;;7.88;;
72649;SDS011;61467;50.674;4.618;2023-04-03T07:05:26;13.75;;;8.68;;
72649;SDS011;61467;50.674;4.618;2023-04-03T07:07:53;14.23;;;7.85;;
72649;SDS011;61467;50.674;4.618;2023-04-03T07:10:20;16.50;;;8.57;;
72649;SDS011;61467;50.674;4.618;2023-04-03T07:12:47;12.75;;;7.90;;
72649;SDS011;61467;50.674;4.618;2023-04-03T07:15:14;13.70;;;7.78;;
72649;SDS011;61467;50.674;4.618;2023-04-03T07:17:42;12.75;;;7.88;;
72649;SDS011;61467;50.674;4.618;2023-04-03T07:20:09;17.35;;;8.02;;
72649;SDS011;61467;50.674;4.618;2023-04-03T07:22:37;17.27;;;7.80;;
72649;SDS011;61467;50.674;4.618;2023-04-03T07:25:04;12.70;;;8.45;;
72649;SDS011;61467;50.674;4.618;2023-04-03T07:27:32;13.32;;;8.48;;
72649;SDS011;61467;50.674;4.618;2023-04-03T07:29:59;14.10;;;7.88;;
72649;SDS011;61467;50.674;4.618;2023-04-03T07:32:26;13.45;;;8.10;;
72649;SDS011;61467;50.674;4.618;2023-04-03T07:34:54;14.13;;;7.97;;
72649;SDS011;61467;50.674;4.618;2023-04-03T07:37:21;11.63;;;7.43;;
72649;SDS011;61467;50.674;4.618;2023-04-03T07:39:48;12.52;;;7.50;;
72649;SDS011;61467;50.674;4.618;2023-04-03T07:42:16;16.95;;;7.95;;
72649;SDS011;61467;50.674;4.618;2023-04-03T07:44:43;15.65;;;8.02;;
72649;SDS011;61467;50.674;4.618;2023-04-03T07:47:10;13.70;;;8.47;;
72649;SDS011;61467;50.674;4.618;2023-04-03T07:49:38;16.60;;;7.55;;
72649;SDS011;61467;50.674;4.618;2023-04-03T07:52:07;12.00;;;7.60;;
72649;SDS011;61467;50.674;4.618;2023-04-03T07:54:35;13.48;;;8.25;;
72649;SDS011;61467;50.674;4.618;2023-04-03T07:57:03;16.25;;;8.45;;
72649;SDS011;61467;50.674;4.618;2023-04-03T07:59:30;12.13;;;7.77;;
72649;SDS011;61467;50.674;4.618;2023-04-03T08:01:59;12.13;;;7.43;;
72649;SDS011;61467;50.674;4.618;2023-04-03T08:04:26;16.35;;;7.60;;
72649;SDS011;61467;50.674;4.618;2023-04-03T08:06:53;13.35;;;7.60;;
72649;SDS011;61467;50.674;4.618;2023-04-03T08:09:21;13.88;;;7.50;;
72649;SDS011;61467;50.674;4.618;2023-04-03T08:11:48;11.70;;;7.13;;
72649;SDS011;61467;50.674;4.618;2023-04-03T08:14:18;13.13;;;7.57;;
72649;SDS011;61467;50.674;4.618;2023-04-03T08:16:45;12.02;;;7.43;;
72649;SDS011;61467;50.674;4.618;2023-04-03T08:19:13;12.50;;;7.18;;
72649;SDS011;61467;50.674;4.618;2023-04-03T08:21:42;14.15;;;7.82;;
72649;SDS011;61467;50.674;4.618;2023-04-03T08:24:09;13.50;;;7.50;;
72649;SDS011;61467;50.674;4.618;2023-04-03T08:26:38;11.23;;;6.80;;
72649;SDS011;61467;50.674;4.618;2023-04-03T08:29:05;13.50;;;7.60;;
72649;SDS011;61467;50.674;4.618;2023-04-03T08:31:32;12.82;;;6.68;;
72649;SDS011;61467;50.674;4.618;2023-04-03T08:33:58;11.30;;;6.65;;
72649;SDS011;61467;50.674;4.618;2023-04-03T08:36:26;11.80;;;6.20;;
72649;SDS011;61467;50.674;4.618;2023-04-03T08:38:54;11.65;;;6.13;;
72649;SDS011;61467;50.674;4.618;2023-04-03T08:41:25;11.43;;;6.60;;
72649;SDS011;61467;50.674;4.618;2023-04-03T08:46:54;12.95;;;6.72;;
72649;SDS011;61467;50.674;4.618;2023-04-03T08:49:29;10.20;;;6.00;;
72649;SDS011;61467;50.674;4.618;2023-04-03T08:51:58;11.77;;;5.78;;
72649;SDS011;61467;50.674;4.618;2023-04-03T08:54:30;13.88;;;6.57;;
72649;SDS011;61467;50.674;4.618;2023-04-03T08:56:59;10.35;;;5.22;;
72649;SDS011;61467;50.674;4.618;2023-04-03T08:59:31;10.07;;;5.60;;
72649;SDS011;61467;50.674;4.618;2023-04-03T09:02:01;10.20;;;5.73;;
72649;SDS011;61467;50.674;4.618;2023-04-03T09:04:41;10.15;;;5.72;;
72649;SDS011;61467;50.674;4.618;2023-04-03T09:07:10;10.18;;;6.13;;
72649;SDS011;61467;50.674;4.618;2023-04-03T09:09:45;11.00;;;5.63;;
72649;SDS011;61467;50.674;4.618;2023-04-03T09:12:16;11.30;;;6.30;;
72649;SDS011;61467;50.674;4.618;2023-04-03T09:14:49;10.87;;;5.33;;
72649;SDS011;61467;50.674;4.618;2023-04-03T09:17:24;11.82;;;5.32;;
72649;SDS011;61467;50.674;4.618;2023-04-03T09:20:02;10.73;;;5.22;;
72649;SDS011;61467;50.674;4.618;2023-04-03T09:22:36;10.63;;;5.30;;
72649;SDS011;61467;50.674;4.618;2023-04-03T09:25:08;9.00;;;5.50;;
72649;SDS011;61467;50.674;4.618;2023-04-03T09:27:39;11.00;;;5.30;;
72649;SDS011;61467;50.674;4.618;2023-04-03T09:30:08;10.50;;;4.70;;
72649;SDS011;61467;50.674;4.618;2023-04-03T09:32:40;8.77;;;4.82;;
72649;SDS011;61467;50.674;4.618;2023-04-03T09:35:10;9.32;;;4.20;;
72649;SDS011;61467;50.674;4.618;2023-04-03T09:37:45;9.07;;;4.88;;
72649;SDS011;61467;50.674;4.618;2023-04-03T09:40:35;9.43;;;4.30;;
72649;SDS011;61467;50.674;4.618;2023-04-03T09:45:53;8.35;;;4.70;;
72649;SDS011;61467;50.674;4.618;2023-04-03T09:48:22;8.95;;;4.55;;
72649;SDS011;61467;50.674;4.618;2023-04-03T09:50:57;7.15;;;3.58;;
72649;SDS011;61467;50.674;4.618;2023-04-03T09:53:29;10.93;;;4.03;;
72649;SDS011;61467;50.674;4.618;2023-04-03T09:55:58;8.70;;;4.50;;
72649;SDS011;61467;50.674;4.618;2023-04-03T09:58:28;8.20;;;4.13;;
72649;SDS011;61467;50.674;4.618;2023-04-03T10:01:00;7.07;;;3.92;;
72649;SDS011;61467;50.674;4.618;2023-04-03T10:03:29;10.57;;;3.72;;
72649;SDS011;61467;50.674;4.618;2023-04-03T10:05:57;9.57;;;3.90;;
72649;SDS011;61467;50.674;4.618;2023-04-03T10:08:27;9.52;;;3.50;;
72649;SDS011;61467;50.674;4.618;2023-04-03T10:11:12;9.85;;;4.43;;
72649;SDS011;61467;50.674;4.618;2023-04-03T10:13:55;10.25;;;3.92;;
72649;SDS011;61467;50.674;4.618;2023-04-03T10:16:32;9.70;;;4.18;;
72649;SDS011;61467;50.674;4.618;2023-04-03T10:19:04;8.27;;;3.30;;
72649;SDS011;61467;50.674;4.618;2023-04-03T10:21:48;9.38;;;2.92;;
72649;SDS011;61467;50.674;4.618;2023-04-03T10:24:21;8.02;;;3.30;;
72649;SDS011;61467;50.674;4.618;2023-04-03T10:26:53;8.65;;;2.95;;
72649;SDS011;61467;50.674;4.618;2023-04-03T10:29:31;7.97;;;3.10;;
72649;SDS011;61467;50.674;4.618;2023-04-03T10:32:11;7.73;;;3.00;;
72649;SDS011;61467;50.674;4.618;2023-04-03T10:34:48;9.00;;;3.00;;
72649;SDS011;61467;50.674;4.618;2023-04-03T10:37:21;7.22;;;3.05;;
72649;SDS011;61467;50.674;4.618;2023-04-03T10:39:54;8.23;;;3.58;;
72649;SDS011;61467;50.674;4.618;2023-04-03T10:42:27;7.13;;;3.10;;
72649;SDS011;61467;50.674;4.618;2023-04-03T10:45:01;7.27;;;2.63;;
72649;SDS011;61467;50.674;4.618;2023-04-03T10:47:44;8.35;;;2.90;;
72649;SDS011;61467;50.674;4.618;2023-04-03T10:50:29;7.05;;;2.67;;
72649;SDS011;61467;50.674;4.618;2023-04-03T10:53:08;6.55;;;2.20;;
72649;SDS011;61467;50.674;4.618;2023-04-03T10:55:41;9.20;;;2.70;;
72649;SDS011;61467;50.674;4.618;2023-04-03T10:58:18;5.70;;;2.20;;
72649;SDS011;61467;50.674;4.618;2023-04-03T11:00:48;7.97;;;2.13;;
72649;SDS011;61467;50.674;4.618;2023-04-03T11:03:24;5.10;;;1.70;;
72649;SDS011;61467;50.674;4.618;2023-04-03T11:05:57;5.50;;;1.80;;
72649;SDS011;61467;50.674;4.618;2023-04-03T11:08:28;6.97;;;2.15;;
72649;SDS011;61467;50.674;4.618;2023-04-03T11:11:04;6.83;;;2.20;;
72649;SDS011;61467;50.674;4.618;2023-04-03T11:13:34;7.00;;;1.85;;
72649;SDS011;61467;50.674;4.618;2023-04-03T11:16:05;7.05;;;1.70;;
72649;SDS011;61467;50.674;4.618;2023-04-03T11:18:35;5.68;;;1.80;;
72649;SDS011;61467;50.674;4.618;2023-04-03T11:21:07;7.32;;;1.75;;
72649;SDS011;61467;50.674;4.618;2023-04-03T11:23:43;6.37;;;1.90;;
72649;SDS011;61467;50.674;4.618;2023-04-03T11:26:12;10.27;;;1.60;;
72649;SDS011;61467;50.674;4.618;2023-04-03T11:28:41;7.22;;;1.90;;
72649;SDS011;61467;50.674;4.618;2023-04-03T11:31:12;7.20;;;1.63;;
72649;SDS011;61467;50.674;4.618;2023-04-03T11:33:55;5.07;;;1.50;;
72649;SDS011;61467;50.674;4.618;2023-04-03T11:36:31;8.23;;;1.87;;
72649;SDS011;61467;50.674;4.618;2023-04-03T11:39:07;5.88;;;1.67;;
72649;SDS011;61467;50.674;4.618;2023-04-03T11:41:47;7.20;;;2.22;;
72649;SDS011;61467;50.674;4.618;2023-04-03T11:47:05;9.02;;;2.13;;
72649;SDS011;61467;50.674;4.618;2023-04-03T11:53:02;5.68;;;1.60;;
72649;SDS011;61467;50.674;4.618;2023-04-03T12:01:47;7.38;;;1.40;;
72649;SDS011;61467;50.674;4.618;2023-04-03T12:04:16;5.93;;;1.30;;
72649;SDS011;61467;50.674;4.618;2023-04-03T12:06:53;7.97;;;1.80;;
72649;SDS011;61467;50.674;4.618;2023-04-03T12:12:42;6.43;;;1.60;;
72649;SDS011;61467;50.674;4.618;2023-04-03T12:15:16;5.53;;;1.77;;
72649;SDS011;61467;50.674;4.618;2023-04-03T12:17:47;5.47;;;1.33;;
72649;SDS011;61467;50.674;4.618;2023-04-03T12:23:23;6.50;;;1.90;;
72649;SDS011;61467;50.674;4.618;2023-04-03T12:25:52;5.65;;;1.50;;
72649;SDS011;61467;50.674;4.618;2023-04-03T12:28:28;5.90;;;1.45;;
72649;SDS011;61467;50.674;4.618;2023-04-03T12:30:55;4.37;;;1.33;;
72649;SDS011;61467;50.674;4.618;2023-04-03T12:33:26;5.75;;;1.50;;
72649;SDS011;61467;50.674;4.618;2023-04-03T12:36:02;6.05;;;1.42;;
72649;SDS011;61467;50.674;4.618;2023-04-03T12:38:49;4.38;;;1.20;;
72649;SDS011;61467;50.674;4.618;2023-04-03T12:41:38;4.60;;;1.20;;
72649;SDS011;61467;50.674;4.618;2023-04-03T12:44:23;4.27;;;1.10;;
72649;SDS011;61467;50.674;4.618;2023-04-03T12:46:59;4.10;;;1.10;;
72649;SDS011;61467;50.674;4.618;2023-04-03T12:49:33;8.25;;;1.60;;
72649;SDS011;61467;50.674;4.618;2023-04-03T12:52:04;7.85;;;2.00;;
72649;SDS011;61467;50.674;4.618;2023-04-03T12:54:42;3.67;;;0.90;;
72649;SDS011;61467;50.674;4.618;2023-04-03T12:57:20;8.90;;;1.20;;
72649;SDS011;61467;50.674;4.618;2023-04-03T12:59:49;4.20;;;1.10;;
72649;SDS011;61467;50.674;4.618;2023-04-03T13:02:21;4.18;;;1.00;;
72649;SDS011;61467;50.674;4.618;2023-04-03T13:04:50;5.50;;;1.08;;
72649;SDS011;61467;50.674;4.618;2023-04-03T13:07:21;5.13;;;1.15;;
72649;SDS011;61467;50.674;4.618;2023-04-03T13:09:55;4.37;;;1.27;;
72649;SDS011;61467;50.674;4.618;2023-04-03T13:12:26;5.13;;;1.40;;
72649;SDS011;61467;50.674;4.618;2023-04-03T13:14:53;5.20;;;1.50;;
72649;SDS011;61467;50.674;4.618;2023-04-03T13:17:23;4.15;;;1.27;;
72649;SDS011;61467;50.674;4.618;2023-04-03T13:19:50;5.60;;;1.40;;
72649;SDS011;61467;50.674;4.618;2023-04-03T13:22:24;6.17;;;1.60;;
72649;SDS011;61467;50.674;4.618;2023-04-03T13:24:55;4.88;;;1.20;;
72649;SDS011;61467;50.674;4.618;2023-04-03T13:27:26;4.80;;;1.48;;
72649;SDS011;61467;50.674;4.618;2023-04-03T13:29:54;6.03;;;1.33;;
72649;SDS011;61467;50.674;4.618;2023-04-03T13:32:25;5.85;;;1.45;;
72649;SDS011;61467;50.674;4.618;2023-04-03T13:34:54;4.50;;;1.13;;
72649;SDS011;61467;50.674;4.618;2023-04-03T13:37:22;5.00;;;1.20;;
72649;SDS011;61467;50.674;4.618;2023-04-03T13:39:58;5.95;;;1.85;;
72649;SDS011;61467;50.674;4.618;2023-04-03T13:42:29;5.80;;;1.42;;
72649;SDS011;61467;50.674;4.618;2023-04-03T13:45:11;4.57;;;1.15;;
72649;SDS011;61467;50.674;4.618;2023-04-03T13:47:46;6.03;;;1.60;;
72649;SDS011;61467;50.674;4.618;2023-04-03T13:50:16;7.70;;;1.65;;
72649;SDS011;61467;50.674;4.618;2023-04-03T13:52:46;4.85;;;1.30;;
72649;SDS011;61467;50.674;4.618;2023-04-03T13:55:17;7.00;;;1.63;;
72649;SDS011;61467;50.674;4.618;2023-04-03T13:57:52;5.45;;;1.40;;
72649;SDS011;61467;50.674;4.618;2023-04-03T14:00:26;8.07;;;1.80;;
72649;SDS011;61467;50.674;4.618;2023-04-03T14:02:57;5.55;;;1.25;;
72649;SDS011;61467;50.674;4.618;2023-04-03T14:05:24;8.25;;;1.65;;
72649;SDS011;61467;50.674;4.618;2023-04-03T14:07:53;5.90;;;1.48;;
72649;SDS011;61467;50.674;4.618;2023-04-03T14:10:20;5.82;;;1.67;;
72649;SDS011;61467;50.674;4.618;2023-04-03T14:12:47;5.07;;;1.10;;
72649;SDS011;61467;50.674;4.618;2023-04-03T14:15:18;4.32;;;1.38;;
72649;SDS011;61467;50.674;4.618;2023-04-03T14:17:48;5.18;;;1.42;;
72649;SDS011;61467;50.674;4.618;2023-04-03T14:20:17;6.78;;;1.48;;
72649;SDS011;61467;50.674;4.618;2023-04-03T14:22:46;6.35;;;1.63;;
72649;SDS011;61467;50.674;4.618;2023-04-03T14:25:14;5.17;;;1.50;;
72649;SDS011;61467;50.674;4.618;2023-04-03T14:27:42;6.35;;;1.52;;
72649;SDS011;61467;50.674;4.618;2023-04-03T14:30:12;5.10;;;1.75;;
72649;SDS011;61467;50.674;4.618;2023-04-03T14:32:43;4.40;;;1.23;;
72649;SDS011;61467;50.674;4.618;2023-04-03T14:35:11;5.50;;;1.45;;
72649;SDS011;61467;50.674;4.618;2023-04-03T14:37:39;7.80;;;1.60;;
72649;SDS011;61467;50.674;4.618;2023-04-03T14:40:07;5.05;;;1.45;;
72649;SDS011;61467;50.674;4.618;2023-04-03T14:42:37;5.78;;;1.50;;
72649;SDS011;61467;50.674;4.618;2023-04-03T14:45:05;6.28;;;1.33;;
72649;SDS011;61467;50.674;4.618;2023-04-03T14:47:33;5.60;;;1.58;;
72649;SDS011;61467;50.674;4.618;2023-04-03T14:50:11;5.27;;;1.47;;
72649;SDS011;61467;50.674;4.618;2023-04-03T14:52:40;4.80;;;1.50;;
72649;SDS011;61467;50.674;4.618;2023-04-03T14:55:07;6.38;;;1.90;;
72649;SDS011;61467;50.674;4.618;2023-04-03T14:57:34;5.65;;;1.70;;
72649;SDS011;61467;50.674;4.618;2023-04-03T15:00:06;6.05;;;1.75;;
72649;SDS011;61467;50.674;4.618;2023-04-03T15:02:35;5.43;;;1.40;;
72649;SDS011;61467;50.674;4.618;2023-04-03T15:05:03;4.93;;;1.50;;
72649;SDS011;61467;50.674;4.618;2023-04-03T15:07:35;5.95;;;1.63;;
72649;SDS011;61467;50.674;4.618;2023-04-03T15:10:13;5.38;;;1.48;;
72649;SDS011;61467;50.674;4.618;2023-04-03T15:12:42;5.63;;;1.52;;
72649;SDS011;61467;50.674;4.618;2023-04-03T15:15:10;6.00;;;1.60;;
72649;SDS011;61467;50.674;4.618;2023-04-03T15:17:37;7.15;;;2.15;;
72649;SDS011;61467;50.674;4.618;2023-04-03T15:20:05;8.23;;;1.80;;
72649;SDS011;61467;50.674;4.618;2023-04-03T15:22:39;10.55;;;1.30;;